AirNav   Air Wisconsin Up To $57,000 Bonus
 
 915 users online  

19LA Self Forward Landing Strip
Leesville, Louisiana, USA


FAA INFORMATION EFFECTIVE 12 SEPTEMBER 2019

Location

FAA Identifier: 19LA
Lat/Long: 31-07-01.2800N 093-09-15.5400W
31-07.021333N 093-09.259000W
31.1170222,-93.1543167
(estimated)
Elevation: 368 ft. / 112 m (estimated)
From city: 6 miles ESE of LEESVILLE, LA
Time zone: UTC -5 (UTC -6 during Standard Time)
Zip code: 71446

Airport Operations

Airport use: Private use. Permission required prior to landing
Activation date: 04/2019
Control tower: no
ARTCC: FORT WORTH CENTER
FSS: FORT WORTH FLIGHT SERVICE STATION
Attendance: 
Segmented circle: no

Airport Communications

WX ASOS at POE (5 nm SW): PHONE 337-531-4100
WX AWOS-3PT at DRI (20 nm SW): 118.225 (337-463-8278)

Nearby radio navigation aids

VOR radial/distance  VOR name  Freq  Var
FXUr082/(3.3)POLK VOR108.4002E
AEXr253/34.6ALEXANDRIA VORTAC116.1003E

 
NDB name  Hdg/Dist  Freq  Var  ID
GATOR014/5.635902EGUV --. ..- ...-
DE RIDDER019/23.838504EDXB -.. -..- -...
NATCHITOCHES183/32.740704EOOC --- --- -.-.

Airport Services

Runway Information

Runway 17/35

Dimensions: 3574 x 92 ft. / 1089 x 28 m
Surface: concrete
RUNWAY 17  RUNWAY 35
Traffic pattern: leftright

Airport Ownership and Management from official FAA records

Ownership: U.S. Army
Owner: US ARMY
NORTH FORT POLK
FORT POLK, LA 71459
Phone 337-531-1706
Manager: ALLEN T SEAGLE
7575 DONALDSON LOOP
FORT POLK, LA 71459
Phone 337-531-1151

Airport Operational Statistics

Aircraft based on the field: 1
Helicopters: 1
    

Instrument Procedures

There are no published instrument procedures at 19LA.

Some nearby airports with instrument procedures:

KPOE - Polk Army Airfield (5 nm SW)
L39 - Leesville Airport (10 nm W)
KDRI - Beauregard Regional Airport (20 nm SW)
3R4 - Hart Airport (31 nm NW)
KACP - Allen Parish Airport (33 nm SE)
 
Loc | Ops | Rwys | IFR | FBO | Links
Com | Nav | Svcs | Stats | Notes
Aerial photo
No photo
 
Airport distance calculator
Flying to Self Forward Landing Strip? Find the distance to fly.

From to 19LA

Sunrise and sunset
Times for 16-Sep-2019
 Local
(UTC-5)
 Zulu
(UTC)
Morning civil twilight06:3411:34
Sunrise06:5811:58
Sunset19:1700:17
Evening civil twilight19:4100:41

Current date and time
Zulu (UTC)  17-Sep-2019 01:39:27
Local (UTC-5)  16-Sep-2019 20:39:27
 
METAR
KPOE 
9nm E 
162358Z AUTO 12004KT 10SM FEW160 26/22 A2995 RMK AO2 SLP141 60000 T02620216 10356 20256
KBKB 
14nm SE 
170054Z AUTO 00000KT 10SM CLR 25/22 A2994 RMK AO2 SLP166 T02500222
KDRI 
19nm SW 
170115Z AUTO 00000KT 10SM CLR 25/21 A2998 RMK AO2 T02510212
TAF
KPOE 
9nm E 
170000Z 1700/1806 11006KT 9999 SCT030 BKN060 QNH2993INS TEMPO 1710/1714 BKN005 BECMG 1718/1719 12009KT 8000 -SHRA BKN020 QNH2991INS TEMPO 1719/1723 13010G15KT 4800 -TSRA BKN015CB BECMG 1800/1801 13006KT 9999 NSW BKN030 QNH2994INS TX33/1721Z TN24/1712Z
NOTAMs
Click for the latest NOTAMs
NOTAMs are issued by the DoD/FAA and will open in a separate window not controlled by AirNav.

 

 
 

Would you like to see your business listed on this page?

 If your business provides an interesting product or service to pilots, flight crews, aircraft, or users of the Self Forward Landing Strip, you should consider listing it here.  To start the listing process, click on the button below
 
Add a business
 

Other Pages about Self Forward Landing Strip

Update a link
 
Copyright © AirNav, LLC. All rights reserved. Privacy Policy  Contact